Time;durP1;ratioP1;P1;durP2;ratioP2;P2;SDS_P1;SDS_P2;PMS_P1;PMS_P2;Temp;Humidity;BMP_temperature;BMP_pressure;BME280_temperature;BME280_humidity;BME280_pressure;Samples;Min_cycle;Max_cycle;Signal;HPM_P1;HPM_P2
2020/12/08 00:01:36;;;;;;;8.13;7.03;;;3.00;82.20;;;;;;5005956;28;20214;-89
2020/12/08 00:04:03;;;;;;;6.93;6.33;;;3.00;82.20;;;;;;5006119;28;20554;-87
2020/12/08 00:06:29;;;;;;;7.50;6.80;;;2.90;83.20;;;;;;5006963;28;20261;-88
2020/12/08 00:08:55;;;;;;;7.80;7.03;;;3.00;83.10;;;;;;5002088;28;20250;-87
2020/12/08 00:11:22;;;;;;;8.00;7.20;;;3.00;83.90;;;;;;5004326;28;20209;-87
2020/12/08 00:13:48;;;;;;;8.60;7.70;;;3.10;83.00;;;;;;5006649;28;20181;-87
2020/12/08 00:16:14;;;;;;;7.83;7.03;;;3.00;82.10;;;;;;5005733;28;20281;-87
2020/12/08 00:18:40;;;;;;;7.93;7.13;;;2.90;81.50;;;;;;5005721;28;20190;-88
2020/12/08 00:21:06;;;;;;;7.77;6.97;;;2.70;81.60;;;;;;5021705;28;20277;-88
2020/12/08 00:23:32;;;;;;;9.63;7.83;;;2.70;83.00;;;;;;5005192;28;20255;-89
2020/12/08 00:25:58;;;;;;;7.53;6.77;;;2.70;83.40;;;;;;5007149;28;20202;-89
2020/12/08 00:28:24;;;;;;;7.83;6.90;;;2.70;83.80;;;;;;5005286;28;20240;-89
2020/12/08 00:30:50;;;;;;;7.67;6.90;;;2.70;83.70;;;;;;5006182;28;20233;-88
2020/12/08 00:33:16;;;;;;;7.67;6.97;;;2.70;83.00;;;;;;5005679;28;20186;-89
2020/12/08 00:35:42;;;;;;;7.37;6.70;;;2.70;83.00;;;;;;5005294;28;20183;-88
2020/12/08 00:38:08;;;;;;;9.07;8.00;;;2.70;82.70;;;;;;5008693;28;20166;-87
2020/12/08 00:40:34;;;;;;;7.50;6.70;;;2.70;82.10;;;;;;5005305;28;20209;-88
2020/12/08 00:42:59;;;;;;;8.27;7.33;;;2.60;82.00;;;;;;5005295;28;20217;-87
2020/12/08 00:45:25;;;;;;;9.43;7.33;;;2.30;82.70;;;;;;4989409;28;20262;-88
2020/12/08 00:47:51;;;;;;;8.63;7.73;;;2.20;83.60;;;;;;4988074;28;20191;-89
2020/12/08 00:50:17;;;;;;;9.07;8.17;;;2.10;83.90;;;;;;5007283;28;20163;-88
2020/12/08 00:52:42;;;;;;;10.00;7.87;;;2.00;84.80;;;;;;5006952;28;20194;-88
2020/12/08 00:55:09;;;;;;;8.03;7.23;;;2.00;84.60;;;;;;5006949;28;20179;-88
2020/12/08 00:57:35;;;;;;;8.30;7.13;;;1.90;85.10;;;;;;4988858;28;20186;-88
2020/12/08 01:00:03;;;;;;;8.40;7.47;;;1.90;85.60;;;;;;5008515;28;20185;-88
2020/12/08 01:02:29;;;;;;;8.10;7.30;;;2.00;85.90;;;;;;5008217;28;20233;-88
2020/12/08 01:04:54;;;;;;;7.83;7.03;;;2.00;85.90;;;;;;5005403;28;20206;-87
2020/12/08 01:07:20;;;;;;;9.77;7.07;;;2.10;85.80;;;;;;5006455;28;20174;-88
2020/12/08 01:09:46;;;;;;;7.47;6.77;;;2.10;86.10;;;;;;5006404;28;20194;-88
2020/12/08 01:12:12;;;;;;;7.67;6.90;;;2.20;86.60;;;;;;5008408;28;20207;-87
2020/12/08 01:14:37;;;;;;;9.57;7.33;;;2.30;85.40;;;;;;5008503;28;20193;-89
2020/12/08 01:17:05;;;;;;;7.20;6.50;;;2.30;84.10;;;;;;5010360;28;20196;-87
2020/12/08 01:19:30;;;;;;;8.53;7.57;;;2.30;84.50;;;;;;5009122;28;20197;-87
2020/12/08 01:21:56;;;;;;;8.20;7.37;;;2.30;84.90;;;;;;5010558;28;20201;-87
2020/12/08 01:24:22;;;;;;;9.03;7.03;;;2.40;84.30;;;;;;5010438;28;20763;-87
2020/12/08 01:26:49;;;;;;;8.47;6.83;;;2.30;83.40;;;;;;5010110;28;20186;-88
2020/12/08 01:29:15;;;;;;;10.73;7.43;;;2.20;83.50;;;;;;5010024;28;20183;-88
2020/12/08 01:31:41;;;;;;;8.37;7.53;;;2.10;83.70;;;;;;5010002;28;20636;-88
2020/12/08 01:34:09;;;;;;;8.77;7.87;;;2.00;84.40;;;;;;5009688;28;20182;-88
2020/12/08 01:36:35;;;;;;;9.33;8.07;;;2.00;85.50;;;;;;5013768;28;20197;-90
2020/12/08 01:39:01;;;;;;;9.10;8.20;;;2.00;85.60;;;;;;5020193;28;20179;-90
2020/12/08 01:41:27;;;;;;;8.77;7.60;;;2.00;85.50;;;;;;5010895;28;20701;-87
2020/12/08 01:43:56;;;;;;;7.67;6.93;;;2.00;85.80;;;;;;4993163;28;20197;-89
2020/12/08 01:46:24;;;;;;;8.00;7.20;;;2.10;86.30;;;;;;5020793;28;20158;-91
2020/12/08 01:48:51;;;;;;;9.10;8.10;;;2.10;86.70;;;;;;5020365;28;20158;-87
2020/12/08 01:51:18;;;;;;;9.17;8.17;;;2.20;85.90;;;;;;4992944;28;20202;-87
2020/12/08 01:53:46;;;;;;;9.30;8.23;;;2.20;85.70;;;;;;5008538;28;20183;-87
2020/12/08 01:56:13;;;;;;;9.27;8.37;;;2.20;85.20;;;;;;5008943;28;20542;-88
2020/12/08 01:58:39;;;;;;;8.90;7.80;;;2.00;84.70;;;;;;5008482;28;20196;-88
2020/12/08 02:01:05;;;;;;;9.07;8.13;;;1.90;85.70;;;;;;5008412;28;20282;-87
2020/12/08 02:03:31;;;;;;;8.73;7.60;;;1.90;86.10;;;;;;5010032;28;20185;-89
2020/12/08 02:05:57;;;;;;;9.03;8.13;;;1.80;85.90;;;;;;5008393;28;20206;-88
2020/12/08 02:08:29;;;;;;;10.87;8.57;;;1.70;86.70;;;;;;5009357;28;20189;-87
2020/12/08 02:10:55;;;;;;;9.17;8.17;;;1.60;87.60;;;;;;5008840;28;20210;-87
2020/12/08 02:13:22;;;;;;;10.77;8.37;;;1.70;88.40;;;;;;5011202;28;20186;-88
2020/12/08 02:15:48;;;;;;;12.23;9.00;;;1.70;88.20;;;;;;5009258;28;20550;-88
2020/12/08 02:18:14;;;;;;;9.17;8.20;;;1.80;88.50;;;;;;5008716;28;20182;-89
2020/12/08 02:20:41;;;;;;;10.70;9.27;;;1.80;87.70;;;;;;5007402;28;20312;-88
2020/12/08 02:23:07;;;;;;;11.87;9.53;;;1.90;88.10;;;;;;5007664;28;20255;-88
2020/12/08 02:25:33;;;;;;;11.67;8.97;;;1.90;87.70;;;;;;5008439;28;20202;-88
2020/12/08 02:27:59;;;;;;;11.30;9.37;;;2.00;87.50;;;;;;5007558;28;20614;-87
2020/12/08 02:30:25;;;;;;;10.87;8.83;;;2.00;87.80;;;;;;4991162;28;20251;-89
2020/12/08 02:32:51;;;;;;;12.07;9.30;;;2.10;88.20;;;;;;5008821;28;20175;-88
2020/12/08 02:35:17;;;;;;;10.90;9.03;;;2.20;88.00;;;;;;5009106;28;20772;-88
2020/12/08 02:37:42;;;;;;;12.60;9.40;;;2.20;87.80;;;;;;5007901;28;20203;-89
2020/12/08 02:40:08;;;;;;;11.17;9.87;;;2.40;87.50;;;;;;4975593;28;20193;-89
2020/12/08 02:42:34;;;;;;;12.47;9.10;;;2.40;86.60;;;;;;5008812;28;20269;-88
2020/12/08 02:45:00;;;;;;;9.60;8.50;;;2.50;84.20;;;;;;5007185;28;20293;-89
2020/12/08 02:47:25;;;;;;;10.33;8.80;;;2.30;84.30;;;;;;4991209;28;20197;-89
2020/12/08 02:49:54;;;;;;;11.90;9.03;;;2.20;85.00;;;;;;4974999;28;20194;-87
2020/12/08 02:52:21;;;;;;;11.27;9.27;;;2.10;85.40;;;;;;5008659;28;20205;-88
2020/12/08 02:54:47;;;;;;;11.43;8.90;;;2.10;85.30;;;;;;4990948;28;20651;-87
2020/12/08 02:57:12;;;;;;;11.00;9.00;;;2.10;86.20;;;;;;5008786;28;20294;-87
2020/12/08 02:59:38;;;;;;;9.67;8.40;;;2.10;86.90;;;;;;5007580;28;20258;-88
2020/12/08 03:02:04;;;;;;;10.90;8.87;;;2.10;87.00;;;;;;5006662;28;20210;-89
2020/12/08 03:04:30;;;;;;;10.20;8.07;;;2.20;86.50;;;;;;5008873;28;20205;-87
2020/12/08 03:06:55;;;;;;;8.77;7.87;;;2.30;86.40;;;;;;4976096;28;20558;-88
2020/12/08 03:09:21;;;;;;;9.43;8.30;;;2.40;85.80;;;;;;5008824;28;20189;-88
2020/12/08 03:11:47;;;;;;;9.60;8.47;;;2.50;85.50;;;;;;5007673;28;20210;-86
2020/12/08 03:14:13;;;;;;;11.40;9.17;;;2.50;85.00;;;;;;5007682;28;20182;-89
2020/12/08 03:16:39;;;;;;;10.30;9.20;;;2.30;84.70;;;;;;4992206;28;20186;-89
2020/12/08 03:19:04;;;;;;;9.27;7.70;;;2.10;85.00;;;;;;5007435;28;20187;-88
2020/12/08 03:21:34;;;;;;;10.43;9.03;;;2.00;86.00;;;;;;4990198;28;20309;-88
2020/12/08 03:24:00;;;;;;;10.07;8.57;;;2.10;87.30;;;;;;5007892;28;20221;-88
2020/12/08 03:26:26;;;;;;;13.17;10.83;;;2.20;87.30;;;;;;5008218;28;20182;-88
2020/12/08 03:28:52;;;;;;;11.40;9.67;;;2.10;86.00;;;;;;5007692;28;20190;-88
2020/12/08 03:31:18;;;;;;;11.70;10.13;;;1.90;86.60;;;;;;5006458;28;20325;-88
2020/12/08 03:33:43;;;;;;;11.93;10.00;;;1.80;87.20;;;;;;5006406;28;20197;-87
2020/12/08 03:36:20;;;;;;;12.63;10.73;;;1.80;87.90;;;;;;5007914;28;20202;-87
2020/12/08 03:38:46;;;;;;;13.57;10.37;;;1.70;88.90;;;;;;5006222;28;20186;-87
2020/12/08 03:41:22;;;;;;;14.80;11.33;;;1.80;89.40;;;;;;5006392;28;20282;-87
2020/12/08 03:43:49;;;;;;;15.13;12.33;;;1.80;89.00;;;;;;5007887;28;20165;-88
2020/12/08 03:46:22;;;;;;;17.30;12.57;;;1.80;88.80;;;;;;5007534;28;20216;-89
2020/12/08 03:48:49;;;;;;;13.97;12.33;;;1.80;89.50;;;;;;4989885;28;20187;-88
2020/12/08 03:51:16;;;;;;;14.43;11.67;;;1.80;89.50;;;;;;5006519;28;20269;-88
2020/12/08 03:53:42;;;;;;;15.97;13.47;;;1.80;89.50;;;;;;5006382;28;20182;-88
2020/12/08 03:56:18;;;;;;;13.60;11.33;;;1.70;90.60;;;;;;5006426;28;20182;-89
2020/12/08 03:58:45;;;;;;;13.00;10.77;;;1.90;91.30;;;;;;5022819;28;20186;-89
2020/12/08 04:01:19;;;;;;;14.80;11.30;;;2.00;91.00;;;;;;4991011;28;20213;-88
2020/12/08 04:03:46;;;;;;;19.50;13.10;;;2.20;90.00;;;;;;5006275;28;20173;-88
2020/12/08 04:06:12;;;;;;;15.20;12.63;;;2.20;88.20;;;;;;5006559;28;20198;-88
2020/12/08 04:08:44;;;;;;;16.23;11.93;;;2.30;87.50;;;;;;5006066;28;20170;-87
2020/12/08 04:11:11;;;;;;;13.90;11.30;;;2.20;87.50;;;;;;5006873;28;20273;-87
2020/12/08 04:13:37;;;;;;;13.63;10.43;;;2.10;88.30;;;;;;4991190;28;20186;-87
2020/12/08 04:16:03;;;;;;;15.37;12.70;;;2.10;89.40;;;;;;5011643;28;20181;-91
2020/12/08 04:18:28;;;;;;;16.07;12.63;;;2.20;88.80;;;;;;5017381;28;20178;-90
2020/12/08 04:20:54;;;;;;;18.47;12.83;;;2.20;88.50;;;;;;5008944;28;20298;-87
2020/12/08 04:23:20;;;;;;;17.00;12.37;;;2.20;88.60;;;;;;5006813;28;20178;-87
2020/12/08 04:25:46;;;;;;;13.43;11.57;;;2.30;88.90;;;;;;5017306;28;20206;-91
2020/12/08 04:28:12;;;;;;;13.70;11.27;;;2.20;88.10;;;;;;5017689;28;20186;-89
2020/12/08 04:30:39;;;;;;;16.13;13.17;;;2.20;89.00;;;;;;5007540;28;20210;-88
2020/12/08 04:33:08;;;;;;;17.20;12.90;;;2.20;88.60;;;;;;4990006;28;20214;-88
2020/12/08 04:35:34;;;;;;;15.87;13.10;;;2.30;88.80;;;;;;4989423;28;20237;-88
2020/12/08 04:38:00;;;;;;;16.07;13.23;;;2.30;88.70;;;;;;5007458;28;20197;-89
2020/12/08 04:40:27;;;;;;;14.87;12.77;;;2.20;89.00;;;;;;5007183;28;20202;-88
2020/12/08 04:42:54;;;;;;;14.53;11.70;;;2.30;89.00;;;;;;5007790;28;20178;-89
2020/12/08 04:45:21;;;;;;;15.57;12.87;;;2.30;88.50;;;;;;5006928;28;20229;-88
2020/12/08 04:47:48;;;;;;;13.73;12.00;;;2.10;89.30;;;;;;4993647;28;20270;-91
2020/12/08 04:50:16;;;;;;;14.77;11.20;;;2.10;90.10;;;;;;5009719;28;20230;-88
2020/12/08 04:52:43;;;;;;;13.87;12.43;;;2.20;89.20;;;;;;5011744;28;20179;-88
2020/12/08 04:55:09;;;;;;;13.73;11.97;;;2.20;89.50;;;;;;5010414;28;20586;-87
2020/12/08 04:57:35;;;;;;;14.90;13.13;;;2.20;89.30;;;;;;5010883;28;20210;-87
2020/12/08 05:00:21;;;;;;;15.43;12.47;;;2.20;89.40;;;;;;5010164;28;20187;-88
2020/12/08 05:02:56;;;;;;;14.87;12.87;;;2.10;90.10;;;;;;5009844;28;20186;-88
2020/12/08 05:05:22;;;;;;;15.17;13.20;;;2.20;90.40;;;;;;5009596;28;20224;-88
2020/12/08 05:07:49;;;;;;;14.17;12.53;;;2.20;90.10;;;;;;5009095;28;20193;-88
2020/12/08 05:10:28;;;;;;;17.37;13.77;;;2.30;90.40;;;;;;5011640;28;20188;-88
2020/12/08 05:12:55;;;;;;;22.83;19.13;;;2.30;90.20;;;;;;5010140;28;20182;-88
2020/12/08 05:15:21;;;;;;;15.73;14.03;;;2.40;90.00;;;;;;5005969;28;20178;-88
2020/12/08 05:17:47;;;;;;;14.63;12.87;;;2.40;88.80;;;;;;5004313;28;20609;-87
2020/12/08 05:20:16;;;;;;;17.93;15.27;;;2.40;89.40;;;;;;5004744;28;20213;-88
2020/12/08 05:22:56;;;;;;;14.53;12.93;;;2.60;89.30;;;;;;5005729;28;20670;-88
2020/12/08 05:25:27;;;;;;;14.03;12.60;;;2.70;89.00;;;;;;5005382;28;20194;-88
2020/12/08 05:27:58;;;;;;;18.27;15.67;;;2.60;88.70;;;;;;5005542;28;20167;-89
2020/12/08 05:30:24;;;;;;;15.10;13.50;;;2.70;88.50;;;;;;5002729;28;20570;-88
2020/12/08 05:32:50;;;;;;;14.33;12.83;;;2.80;88.10;;;;;;5003967;28;20192;-88
2020/12/08 05:35:18;;;;;;;13.97;12.50;;;2.80;87.30;;;;;;5004031;28;20273;-88
2020/12/08 05:37:46;;;;;;;13.60;11.23;;;2.70;87.40;;;;;;5004847;28;20191;-88
2020/12/08 05:40:20;;;;;;;13.27;11.87;;;2.50;87.40;;;;;;5004292;28;20190;-88
2020/12/08 05:42:48;;;;;;;15.07;13.00;;;2.30;88.90;;;;;;5005953;28;20177;-87
2020/12/08 05:45:16;;;;;;;16.00;12.83;;;2.30;89.60;;;;;;5003860;28;20218;-88
2020/12/08 05:47:44;;;;;;;13.10;11.67;;;2.30;89.60;;;;;;5002390;28;20183;-89
2020/12/08 05:50:10;;;;;;;13.20;11.37;;;2.40;89.70;;;;;;5003922;28;20174;-88
2020/12/08 05:52:40;;;;;;;15.30;13.70;;;2.40;90.00;;;;;;5007136;28;20225;-88
2020/12/08 05:55:10;;;;;;;13.80;12.13;;;2.40;89.90;;;;;;5004277;28;20178;-87
2020/12/08 05:57:37;;;;;;;13.77;12.37;;;2.50;88.70;;;;;;5004186;28;20205;-85
2020/12/08 06:00:05;;;;;;;14.40;12.83;;;2.30;89.90;;;;;;5003823;28;20212;-85
2020/12/08 06:02:31;;;;;;;14.63;12.63;;;2.40;89.80;;;;;;5005760;28;20212;-86
2020/12/08 06:04:58;;;;;;;15.03;11.87;;;2.50;89.10;;;;;;5007022;28;20421;-85
2020/12/08 06:07:42;;;;;;;13.87;12.23;;;2.50;89.10;;;;;;5006137;28;20170;-86
2020/12/08 06:10:10;;;;;;;16.07;13.10;;;2.50;88.70;;;;;;5021545;28;20202;-86
2020/12/08 06:12:38;;;;;;;16.83;12.93;;;2.50;88.70;;;;;;5006893;28;20333;-87
2020/12/08 06:15:24;;;;;;;15.63;12.83;;;2.50;89.40;;;;;;5006762;28;20791;-86
2020/12/08 06:17:51;;;;;;;17.17;13.83;;;2.60;88.70;;;;;;5006864;28;20186;-85
2020/12/08 06:20:20;;;;;;;15.00;13.27;;;2.60;88.20;;;;;;5007270;28;20536;-86
2020/12/08 06:22:58;;;;;;;19.73;14.87;;;2.60;89.40;;;;;;5007783;28;20194;-85
2020/12/08 06:25:25;;;;;;;21.90;18.17;;;2.50;89.00;;;;;;5007283;28;20194;-86
2020/12/08 06:27:54;;;;;;;18.87;16.87;;;2.50;88.60;;;;;;5007106;28;20490;-85
2020/12/08 06:30:22;;;;;;;22.53;18.03;;;2.50;88.80;;;;;;5005983;28;20186;-88
2020/12/08 06:32:48;;;;;;;19.47;15.97;;;2.50;88.80;;;;;;5022307;28;20194;-85
2020/12/08 06:35:16;;;;;;;19.77;15.60;;;2.40;89.20;;;;;;5005438;28;20190;-86
2020/12/08 06:37:51;;;;;;;22.47;16.63;;;2.40;89.00;;;;;;4987179;28;20258;-85
2020/12/08 06:40:23;;;;;;;18.27;16.10;;;2.40;89.40;;;;;;4987823;28;20206;-85
2020/12/08 06:42:50;;;;;;;19.90;16.63;;;2.40;89.70;;;;;;5002247;28;20218;-86
2020/12/08 06:45:21;;;;;;;21.93;17.37;;;2.30;89.60;;;;;;5002594;28;20215;-85
2020/12/08 06:47:48;;;;;;;22.67;18.40;;;2.30;90.10;;;;;;5006303;28;20195;-87
2020/12/08 06:50:30;;;;;;;20.33;16.43;;;2.30;90.10;;;;;;5007369;28;20514;-85
2020/12/08 06:53:00;;;;;;;26.63;21.97;;;2.30;89.70;;;;;;5007224;28;20186;-85
2020/12/08 06:55:27;;;;;;;20.73;16.50;;;2.30;89.80;;;;;;5008449;28;20174;-88
2020/12/08 06:58:02;;;;;;;21.83;16.60;;;2.30;90.40;;;;;;5018963;28;20201;-90
2020/12/08 07:00:28;;;;;;;23.80;21.20;;;2.30;90.40;;;;;;5011324;28;20197;-85
2020/12/08 07:02:54;;;;;;;23.17;18.00;;;2.40;90.10;;;;;;5022099;28;20190;-87
2020/12/08 07:05:22;;;;;;;21.37;17.60;;;2.40;90.00;;;;;;4998059;28;20240;-89
2020/12/08 07:07:49;;;;;;;23.47;17.70;;;2.30;90.20;;;;;;5018850;28;20187;-89
2020/12/08 07:10:17;;;;;;;21.57;17.63;;;2.30;89.90;;;;;;5007670;28;20190;-86
2020/12/08 07:12:53;;;;;;;26.87;17.03;;;2.40;89.80;;;;;;5006296;28;20190;-87
2020/12/08 07:15:25;;;;;;;19.10;16.40;;;2.40;89.80;;;;;;5007912;28;20654;-85
2020/12/08 07:18:03;;;;;;;24.53;16.27;;;2.30;90.50;;;;;;4991643;28;20203;-84
2020/12/08 07:20:29;;;;;;;21.33;17.10;;;2.30;90.20;;;;;;5006924;28;20253;-85
2020/12/08 07:22:55;;;;;;;20.00;16.97;;;2.40;90.50;;;;;;5006326;28;20206;-85
2020/12/08 07:25:22;;;;;;;18.73;15.57;;;2.40;90.60;;;;;;4989792;28;20210;-86
2020/12/08 07:27:50;;;;;;;18.97;15.27;;;2.50;90.50;;;;;;5006939;28;20189;-87
2020/12/08 07:30:20;;;;;;;25.77;20.37;;;2.50;90.50;;;;;;5006596;28;20174;-85
2020/12/08 07:32:46;;;;;;;45.80;27.23;;;2.60;89.30;;;;;;4988794;28;20194;-85
2020/12/08 07:35:27;;;;;;;58.27;31.70;;;2.60;88.90;;;;;;5002725;28;20571;-89
2020/12/08 07:37:55;;;;;;;40.73;28.53;;;2.60;88.70;;;;;;5004281;28;20197;-85
2020/12/08 07:40:22;;;;;;;37.50;27.77;;;2.60;89.00;;;;;;5003237;28;20230;-85
2020/12/08 07:42:52;;;;;;;31.47;22.90;;;2.50;89.40;;;;;;4987073;28;20270;-85
2020/12/08 07:45:20;;;;;;;55.60;35.17;;;2.50;89.70;;;;;;4990394;28;20213;-87
2020/12/08 07:47:56;;;;;;;53.53;39.13;;;2.60;89.20;;;;;;5004465;28;20182;-85
2020/12/08 07:50:32;;;;;;;38.27;25.00;;;2.60;88.50;;;;;;5005101;28;20182;-85
2020/12/08 07:52:59;;;;;;;25.73;20.70;;;2.60;89.60;;;;;;4969758;28;20178;-85
2020/12/08 07:55:27;;;;;;;21.37;16.83;;;2.50;89.40;;;;;;4985734;28;20187;-85
2020/12/08 07:57:52;;;;;;;26.17;23.13;;;2.60;89.40;;;;;;4985212;28;20194;-86
2020/12/08 08:00:18;;;;;;;22.43;19.13;;;2.60;88.60;;;;;;4984102;28;20182;-85
2020/12/08 08:02:44;;;;;;;23.40;18.27;;;2.70;88.50;;;;;;4988049;28;20199;-85
2020/12/08 08:05:10;;;;;;;24.33;19.60;;;2.70;88.70;;;;;;4987559;28;20207;-85
2020/12/08 08:07:36;;;;;;;22.07;18.30;;;2.50;89.60;;;;;;5005427;28;20198;-85
2020/12/08 08:10:01;;;;;;;21.47;17.37;;;2.60;89.30;;;;;;5004596;28;20217;-86
2020/12/08 08:12:27;;;;;;;24.03;18.43;;;2.60;89.60;;;;;;5003741;28;20213;-85
2020/12/08 08:14:53;;;;;;;24.37;18.50;;;2.60;89.90;;;;;;5003466;28;20706;-87
2020/12/08 08:17:19;;;;;;;20.87;17.03;;;2.70;89.10;;;;;;5003486;28;20197;-87
2020/12/08 08:19:44;;;;;;;22.73;18.10;;;2.60;89.40;;;;;;5005139;28;20198;-85
2020/12/08 08:22:10;;;;;;;30.17;24.60;;;2.70;88.70;;;;;;5007777;28;20267;-87
2020/12/08 08:24:36;;;;;;;42.53;32.03;;;2.80;88.30;;;;;;5008639;28;20230;-84
2020/12/08 08:27:01;;;;;;;31.17;24.77;;;2.80;88.10;;;;;;5007637;28;20198;-87
2020/12/08 08:29:27;;;;;;;29.40;26.30;;;2.70;88.40;;;;;;5008343;28;20183;-87
2020/12/08 08:31:53;;;;;;;33.83;28.17;;;2.80;88.10;;;;;;5008709;28;20674;-87
2020/12/08 08:34:18;;;;;;;25.13;20.43;;;2.80;87.60;;;;;;5006958;28;20183;-87
2020/12/08 08:36:51;;;;;;;22.50;18.27;;;2.80;88.10;;;;;;5007348;28;20260;-89
2020/12/08 08:39:17;;;;;;;22.47;18.30;;;2.80;88.40;;;;;;5008127;28;20658;-84
2020/12/08 08:41:43;;;;;;;24.50;18.37;;;2.80;88.60;;;;;;5008859;28;20298;-87
2020/12/08 08:44:09;;;;;;;22.93;19.33;;;2.80;88.80;;;;;;5006916;28;20195;-88
2020/12/08 08:46:37;;;;;;;24.57;18.07;;;3.00;87.90;;;;;;5007672;28;20209;-87
2020/12/08 08:49:03;;;;;;;21.87;18.10;;;3.00;87.70;;;;;;5008674;28;20217;-87
2020/12/08 08:51:28;;;;;;;24.77;20.00;;;3.00;87.20;;;;;;5007571;28;21380;-87
2020/12/08 08:53:54;;;;;;;22.10;18.40;;;3.00;87.50;;;;;;4998445;28;20250;-87
2020/12/08 08:56:20;;;;;;;25.57;19.30;;;3.10;87.60;;;;;;4993556;28;20189;-87
2020/12/08 08:58:45;;;;;;;23.57;19.10;;;3.10;87.40;;;;;;4990330;28;20205;-87
2020/12/08 09:01:11;;;;;;;24.47;18.83;;;3.10;87.40;;;;;;5000057;28;20301;-87
2020/12/08 09:03:38;;;;;;;24.47;19.60;;;3.10;87.80;;;;;;5005161;28;20232;-88
2020/12/08 09:06:04;;;;;;;24.57;19.47;;;3.20;86.50;;;;;;5006546;28;20213;-88
2020/12/08 09:08:30;;;;;;;39.33;26.37;;;3.20;86.70;;;;;;5020688;28;20258;-87
2020/12/08 09:10:58;;;;;;;39.07;28.00;;;3.20;86.90;;;;;;5006739;28;20202;-88
2020/12/08 09:13:24;;;;;;;33.93;25.67;;;3.30;86.30;;;;;;5012415;28;20248;-87
2020/12/08 09:15:50;;;;;;;25.73;19.47;;;3.30;86.50;;;;;;5007938;28;20206;-87
2020/12/08 09:18:15;;;;;;;26.83;20.70;;;3.30;86.10;;;;;;4990841;28;20206;-88
2020/12/08 09:20:41;;;;;;;25.13;20.43;;;3.30;86.10;;;;;;4981433;28;20260;-88
2020/12/08 09:23:07;;;;;;;26.03;21.10;;;3.40;86.20;;;;;;5009271;28;20236;-87
2020/12/08 09:25:32;;;;;;;23.43;20.00;;;3.40;87.00;;;;;;5001736;28;20199;-90
2020/12/08 09:27:58;;;;;;;24.23;19.73;;;3.50;85.60;;;;;;5007641;28;20198;-89
2020/12/08 09:30:25;;;;;;;23.00;17.20;;;3.60;85.80;;;;;;5005584;28;20254;-90
2020/12/08 09:32:50;;;;;;;24.10;19.37;;;3.60;85.10;;;;;;5005904;28;20189;-90
2020/12/08 09:35:17;;;;;;;25.67;19.67;;;3.60;84.40;;;;;;5006526;28;20205;-90
2020/12/08 09:37:43;;;;;;;28.60;21.70;;;3.60;84.90;;;;;;5022768;28;20271;-87
2020/12/08 09:40:10;;;;;;;28.50;20.77;;;3.60;84.70;;;;;;5014052;28;20194;-89
2020/12/08 09:42:41;;;;;;;23.67;17.97;;;3.70;84.70;;;;;;5006027;28;20206;-90
2020/12/08 09:45:08;;;;;;;25.70;20.30;;;3.80;84.20;;;;;;5008493;28;20214;-84
2020/12/08 09:47:35;;;;;;;24.20;18.40;;;3.90;83.20;;;;;;5010163;28;20190;-86
2020/12/08 09:50:03;;;;;;;21.83;18.33;;;4.00;83.40;;;;;;5009377;28;20210;-89
2020/12/08 09:52:30;;;;;;;21.47;17.73;;;4.20;82.10;;;;;;5006835;28;20233;-90
2020/12/08 09:54:55;;;;;;;22.30;19.03;;;4.20;81.70;;;;;;4995773;28;20190;-89
2020/12/08 09:57:23;;;;;;;23.07;18.27;;;4.30;81.50;;;;;;4988402;28;20198;-90
2020/12/08 09:59:49;;;;;;;22.47;18.40;;;4.50;82.00;;;;;;4988416;28;20179;-91
2020/12/08 10:02:15;;;;;;;22.30;17.80;;;4.70;82.10;;;;;;4988305;28;20245;-90
2020/12/08 10:04:41;;;;;;;23.00;19.07;;;4.90;79.50;;;;;;4994761;28;20210;-90
2020/12/08 10:07:06;;;;;;;23.33;19.37;;;5.00;79.60;;;;;;5006841;28;20194;-86
2020/12/08 10:09:32;;;;;;;21.87;17.67;;;5.20;78.10;;;;;;5004041;28;20190;-91
2020/12/08 10:11:58;;;;;;;21.73;18.57;;;5.20;77.30;;;;;;5006564;28;20229;-89
2020/12/08 10:14:23;;;;;;;24.03;18.33;;;5.30;77.20;;;;;;5005522;28;20178;-89
2020/12/08 10:16:50;;;;;;;20.77;17.80;;;5.30;77.30;;;;;;4998255;28;20266;-89
2020/12/08 10:19:17;;;;;;;23.20;18.17;;;5.40;76.10;;;;;;5001173;28;20182;-89
2020/12/08 10:21:42;;;;;;;24.47;19.23;;;5.40;76.20;;;;;;5005005;28;20195;-90
2020/12/08 10:24:08;;;;;;;24.30;19.50;;;5.50;75.60;;;;;;5005532;28;20193;-90
2020/12/08 10:26:34;;;;;;;21.70;18.47;;;5.60;75.40;;;;;;5005185;28;20193;-90
2020/12/08 10:28:59;;;;;;;24.93;18.70;;;5.50;74.70;;;;;;5006411;28;20209;-88
2020/12/08 10:31:26;;;;;;;24.87;18.30;;;5.50;75.50;;;;;;5005921;28;20202;-90
2020/12/08 10:33:52;;;;;;;21.70;18.30;;;5.40;75.70;;;;;;5005402;28;20188;-86
2020/12/08 10:36:17;;;;;;;22.40;18.70;;;5.60;74.80;;;;;;5004638;28;20237;-89
2020/12/08 10:38:43;;;;;;;24.40;20.20;;;5.80;74.70;;;;;;5001044;28;20190;-89
2020/12/08 10:41:09;;;;;;;25.67;19.77;;;5.90;74.00;;;;;;4994217;28;20207;-90
2020/12/08 10:43:35;;;;;;;21.17;18.13;;;6.00;74.50;;;;;;4999462;28;20218;-90
2020/12/08 10:46:00;;;;;;;22.57;18.03;;;6.20;73.10;;;;;;4995823;28;20210;-89
2020/12/08 10:48:26;;;;;;;22.57;18.37;;;6.30;72.20;;;;;;5000965;28;20201;-89
2020/12/08 10:50:52;;;;;;;23.50;17.77;;;6.40;72.50;;;;;;5002653;28;20226;-90
2020/12/08 10:53:18;;;;;;;22.87;18.53;;;6.40;73.00;;;;;;5002858;28;20720;-89
2020/12/08 10:55:44;;;;;;;24.47;19.10;;;6.60;71.10;;;;;;4996660;28;20183;-89
2020/12/08 10:58:10;;;;;;;23.83;20.47;;;6.70;71.00;;;;;;4987492;28;20209;-90
2020/12/08 11:00:35;;;;;;;23.53;18.27;;;6.80;71.40;;;;;;4999858;28;20214;-90
2020/12/08 11:03:02;;;;;;;21.50;18.50;;;6.80;70.70;;;;;;5003369;28;20673;-91
2020/12/08 11:05:27;;;;;;;20.80;18.30;;;7.00;70.20;;;;;;5002262;28;20210;-90
2020/12/08 11:07:54;;;;;;;20.73;18.53;;;7.00;69.00;;;;;;5002629;28;20196;-91
2020/12/08 11:10:19;;;;;;;21.13;18.73;;;7.00;70.10;;;;;;5006021;28;20187;-91
2020/12/08 11:12:45;;;;;;;21.63;19.33;;;7.00;69.40;;;;;;5006445;28;20190;-90
2020/12/08 11:15:11;;;;;;;22.77;18.67;;;7.10;68.70;;;;;;4977781;28;20186;-91
2020/12/08 11:17:37;;;;;;;43.00;27.00;;;7.00;68.70;;;;;;5008034;28;20209;-90
2020/12/08 11:20:06;;;;;;;40.63;25.50;;;7.20;69.20;;;;;;5004918;28;20298;-88
2020/12/08 11:22:32;;;;;;;119.93;59.23;;;7.40;67.40;;;;;;5005470;28;20206;-90
2020/12/08 11:25:02;;;;;;;26.67;22.20;;;7.30;67.50;;;;;;5006267;28;20221;-90
2020/12/08 11:27:28;;;;;;;21.40;19.07;;;7.40;68.10;;;;;;5003132;28;20190;-90
2020/12/08 11:29:53;;;;;;;20.77;17.93;;;7.60;67.10;;;;;;5008022;28;20213;-89
2020/12/08 11:32:20;;;;;;;21.27;18.77;;;7.70;66.50;;;;;;5001960;28;20206;-90
2020/12/08 11:34:46;;;;;;;21.57;18.73;;;7.50;65.80;;;;;;4993237;28;20195;-89
2020/12/08 11:37:12;;;;;;;21.23;18.73;;;7.70;66.40;;;;;;5018626;28;20202;-90
2020/12/08 11:39:38;;;;;;;19.73;17.57;;;7.80;66.40;;;;;;4991038;28;20242;-86
2020/12/08 11:42:06;;;;;;;20.37;17.53;;;7.90;65.30;;;;;;5004764;28;20271;-86
2020/12/08 11:44:32;;;;;;;21.40;18.43;;;7.80;66.50;;;;;;5000693;28;20202;-86
2020/12/08 11:46:58;;;;;;;20.47;18.03;;;8.00;64.60;;;;;;5006764;28;20167;-88
2020/12/08 11:49:23;;;;;;;21.30;19.10;;;7.90;65.30;;;;;;4996750;28;20186;-90
2020/12/08 11:51:49;;;;;;;20.13;18.00;;;8.00;64.70;;;;;;5004161;28;20210;-90
2020/12/08 11:54:16;;;;;;;23.93;19.63;;;7.90;64.90;;;;;;4996491;28;20238;-87
2020/12/08 11:56:41;;;;;;;22.30;19.90;;;8.20;64.90;;;;;;5023425;28;20182;-90
2020/12/08 11:59:07;;;;;;;22.10;19.37;;;8.20;63.30;;;;;;5016387;28;20197;-88
2020/12/08 12:01:33;;;;;;;23.50;18.23;;;8.40;63.20;;;;;;5004210;28;20219;-87
2020/12/08 12:03:58;;;;;;;21.20;18.33;;;8.20;62.70;;;;;;5007061;28;20250;-88
2020/12/08 12:06:24;;;;;;;20.47;18.33;;;8.10;64.10;;;;;;5010889;28;20300;-91
2020/12/08 12:08:50;;;;;;;22.50;18.33;;;8.30;63.90;;;;;;4994137;28;20258;-90
2020/12/08 12:11:16;;;;;;;21.00;18.73;;;8.40;62.70;;;;;;4986376;28;20206;-91
2020/12/08 12:13:41;;;;;;;21.50;18.43;;;8.70;62.20;;;;;;4993675;28;20189;-90
2020/12/08 12:16:07;;;;;;;22.37;19.90;;;8.80;61.90;;;;;;5007916;28;20182;-86
2020/12/08 12:18:33;;;;;;;21.50;19.27;;;8.90;61.40;;;;;;5017204;28;20175;-87
2020/12/08 12:20:59;;;;;;;20.93;18.73;;;8.90;61.20;;;;;;5011800;28;20202;-90
2020/12/08 12:23:25;;;;;;;20.77;18.53;;;8.90;61.70;;;;;;4988989;28;20329;-90
2020/12/08 12:25:51;;;;;;;24.43;20.27;;;9.00;61.60;;;;;;4995611;28;20256;-92
2020/12/08 12:28:16;;;;;;;21.10;18.90;;;8.90;61.70;;;;;;5018058;28;20171;-92
2020/12/08 12:30:42;;;;;;;21.10;18.90;;;8.90;61.30;;;;;;5011321;28;20198;-87
2020/12/08 12:33:08;;;;;;;21.50;19.20;;;8.80;62.00;;;;;;5005460;28;20187;-87
2020/12/08 12:35:34;;;;;;;20.20;18.07;;;8.70;61.60;;;;;;5002204;28;20603;-87
2020/12/08 12:38:00;;;;;;;21.10;18.80;;;8.50;61.90;;;;;;5003466;28;20568;-88
2020/12/08 12:40:25;;;;;;;20.67;18.37;;;8.60;63.00;;;;;;5003333;28;20553;-87